createdAt,value
2022-10-06T00:00:41.063Z,12.10
2022-10-06T00:01:43.086Z,12.00
2022-10-06T00:02:46.365Z,12.00
2022-10-06T00:03:48.327Z,12.00
2022-10-06T00:04:51.316Z,12.00
2022-10-06T00:05:59.545Z,12.00
2022-10-06T00:07:02.493Z,12.00
2022-10-06T00:08:04.750Z,12.00
2022-10-06T00:09:09.122Z,13.90
2022-10-06T00:10:11.063Z,12.00
2022-10-06T00:11:15.373Z,12.00
2022-10-06T00:12:17.311Z,12.00
2022-10-06T00:13:20.226Z,12.00
2022-10-06T00:14:22.268Z,12.00
2022-10-06T00:15:27.887Z,12.00
2022-10-06T00:16:29.858Z,12.00
2022-10-06T00:17:32.782Z,12.00
2022-10-06T00:18:35.486Z,12.00
2022-10-06T00:19:38.425Z,11.90
2022-10-06T00:20:43.329Z,11.90
2022-10-06T00:21:46.361Z,11.90
2022-10-06T00:22:48.808Z,11.90
2022-10-06T00:23:52.263Z,11.90
2022-10-06T00:24:56.022Z,11.90
2022-10-06T00:25:59.120Z,12.00
2022-10-06T00:27:01.554Z,12.00
2022-10-06T00:28:04.615Z,12.00
2022-10-06T00:29:06.620Z,12.00
2022-10-06T00:30:12.538Z,11.90
2022-10-06T00:31:15.798Z,11.90
2022-10-06T00:32:18.733Z,11.90
2022-10-06T00:33:20.787Z,12.00
2022-10-06T00:34:23.750Z,12.00
2022-10-06T00:35:27.017Z,11.90
2022-10-06T00:36:30.051Z,11.90
2022-10-06T00:37:36.947Z,11.90
2022-10-06T00:38:39.910Z,11.90
2022-10-06T00:39:41.901Z,11.90
2022-10-06T00:40:47.835Z,11.90
2022-10-06T00:41:49.833Z,11.90
2022-10-06T00:42:56.195Z,11.80
2022-10-06T00:43:59.961Z,11.80
2022-10-06T00:45:04.591Z,11.80
2022-10-06T00:46:09.330Z,11.80
2022-10-06T00:47:11.407Z,11.80
2022-10-06T00:48:17.034Z,11.70
2022-10-06T00:49:23.801Z,11.80
2022-10-06T00:50:26.149Z,11.80
2022-10-06T00:51:30.370Z,11.80
2022-10-06T00:52:32.544Z,11.80
2022-10-06T00:53:35.958Z,11.80
2022-10-06T00:54:38.433Z,11.80
2022-10-06T00:55:41.354Z,11.80
2022-10-06T00:56:45.142Z,11.90
2022-10-06T00:57:48.567Z,11.80
2022-10-06T00:58:50.718Z,11.90
2022-10-06T00:59:54.643Z,11.90
2022-10-06T01:00:57.635Z,11.90
2022-10-06T01:02:03.441Z,11.90
2022-10-06T01:03:10.187Z,11.90
2022-10-06T01:04:15.117Z,12.00
2022-10-06T01:05:23.889Z,12.00
2022-10-06T01:06:26.932Z,12.00
2022-10-06T01:07:29.928Z,12.00
2022-10-06T01:08:34.296Z,11.90
2022-10-06T01:09:38.305Z,11.90
2022-10-06T01:10:40.202Z,11.80
2022-10-06T01:11:45.013Z,11.80
2022-10-06T01:12:47.339Z,11.80
2022-10-06T01:13:50.353Z,11.80
2022-10-06T01:14:52.373Z,11.70
2022-10-06T01:16:00.943Z,11.70
2022-10-06T01:17:09.551Z,11.60
2022-10-06T01:18:16.163Z,11.80
2022-10-06T01:19:26.557Z,11.70
2022-10-06T01:20:30.044Z,11.70
2022-10-06T01:21:35.885Z,11.70
2022-10-06T01:22:43.391Z,11.70
2022-10-06T01:23:45.573Z,11.70
2022-10-06T01:24:52.467Z,11.70
2022-10-06T01:25:55.144Z,11.70
2022-10-06T01:26:59.766Z,11.60
2022-10-06T01:28:03.569Z,11.70
2022-10-06T01:29:06.871Z,11.60
2022-10-06T01:30:11.236Z,11.60
2022-10-06T01:31:15.275Z,11.60
2022-10-06T01:32:17.309Z,11.50
2022-10-06T01:33:21.042Z,11.60
2022-10-06T01:34:23.394Z,11.70
2022-10-06T01:35:26.503Z,11.70
2022-10-06T01:36:29.590Z,11.70
2022-10-06T01:37:32.512Z,11.70
2022-10-06T01:38:36.767Z,11.80
2022-10-06T01:39:39.715Z,11.70
2022-10-06T01:40:41.702Z,11.60
2022-10-06T01:41:47.652Z,11.60
2022-10-06T01:42:49.602Z,11.50
2022-10-06T01:43:52.631Z,11.50
2022-10-06T01:44:54.608Z,11.50
2022-10-06T01:45:58.718Z,11.50
2022-10-06T01:47:00.782Z,11.60
2022-10-06T01:48:03.747Z,11.50
2022-10-06T01:49:07.148Z,11.50
2022-10-06T01:50:10.343Z,11.40
2022-10-06T01:51:14.290Z,11.50
2022-10-06T01:52:17.294Z,11.50
2022-10-06T01:53:19.597Z,11.50
2022-10-06T01:54:23.945Z,11.40
2022-10-06T01:55:26.553Z,11.40
2022-10-06T01:56:29.461Z,11.40
2022-10-06T01:57:31.441Z,11.30
2022-10-06T01:58:34.406Z,11.40
2022-10-06T01:59:36.395Z,11.50
2022-10-06T02:00:40.278Z,11.50
2022-10-06T02:01:42.536Z,11.50
2022-10-06T02:02:45.915Z,11.50
2022-10-06T02:03:47.828Z,11.50
2022-10-06T02:04:50.812Z,11.40
2022-10-06T02:05:56.225Z,11.50
2022-10-06T02:06:59.236Z,11.50
2022-10-06T02:08:02.141Z,11.50
2022-10-06T02:09:05.327Z,11.50
2022-10-06T02:10:09.523Z,11.40
2022-10-06T02:11:13.208Z,11.40
2022-10-06T02:12:15.909Z,11.40
2022-10-06T02:13:18.819Z,11.40
2022-10-06T02:14:20.745Z,11.40
2022-10-06T02:15:23.792Z,11.40
2022-10-06T02:16:25.838Z,11.40
2022-10-06T02:17:29.318Z,11.40
2022-10-06T02:18:31.731Z,11.30
2022-10-06T02:19:35.290Z,11.40
2022-10-06T02:20:37.340Z,11.30
2022-10-06T02:21:40.342Z,11.40
2022-10-06T02:22:43.679Z,11.40
2022-10-06T02:23:47.554Z,11.40
2022-10-06T02:24:49.488Z,11.30
2022-10-06T02:26:00.940Z,11.30
2022-10-06T02:27:02.893Z,11.30
2022-10-06T02:28:05.922Z,11.20
2022-10-06T02:29:07.959Z,11.20
2022-10-06T02:30:12.500Z,11.20
2022-10-06T02:31:14.824Z,11.20
2022-10-06T02:32:17.878Z,11.20
2022-10-06T02:33:20.347Z,11.20
2022-10-06T02:34:23.327Z,11.10
2022-10-06T02:35:25.521Z,11.10
2022-10-06T02:36:29.023Z,11.20
2022-10-06T02:37:31.033Z,11.10
2022-10-06T02:38:34.407Z,11.10
2022-10-06T02:39:36.312Z,11.00
2022-10-06T02:40:39.561Z,11.00
2022-10-06T02:41:42.840Z,11.20
2022-10-06T02:42:46.212Z,11.00
2022-10-06T02:43:48.186Z,11.00
2022-10-06T02:44:52.166Z,11.10
2022-10-06T02:45:55.985Z,11.10
2022-10-06T02:46:59.546Z,11.10
2022-10-06T02:48:01.609Z,11.10
2022-10-06T02:49:04.568Z,12.40
2022-10-06T02:50:07.905Z,11.20
2022-10-06T02:51:13.228Z,11.10
2022-10-06T02:52:15.489Z,11.20
2022-10-06T02:53:18.806Z,11.30
2022-10-06T02:54:20.800Z,11.30
2022-10-06T02:55:23.783Z,11.40
2022-10-06T02:56:26.684Z,11.30
2022-10-06T02:57:31.383Z,11.30
2022-10-06T02:58:33.708Z,11.30
2022-10-06T02:59:36.946Z,11.30
2022-10-06T03:00:38.923Z,11.30
2022-10-06T03:01:42.010Z,11.30
2022-10-06T03:02:44.162Z,11.30
2022-10-06T03:03:48.082Z,11.20
2022-10-06T03:04:50.068Z,11.30
2022-10-06T03:06:00.858Z,11.20
2022-10-06T03:07:02.762Z,11.20
2022-10-06T03:08:05.722Z,11.10
2022-10-06T03:09:09.233Z,11.10
2022-10-06T03:10:12.181Z,11.10
2022-10-06T03:11:14.851Z,11.20
2022-10-06T03:12:17.769Z,11.10
2022-10-06T03:13:21.148Z,11.20
2022-10-06T03:14:24.153Z,11.10
2022-10-06T03:15:26.124Z,11.20
2022-10-06T03:16:31.943Z,11.20
2022-10-06T03:17:34.012Z,11.20
2022-10-06T03:18:36.998Z,11.30
2022-10-06T03:19:39.062Z,11.20
2022-10-06T03:20:42.036Z,11.10
2022-10-06T03:21:44.383Z,11.10
2022-10-06T03:22:47.355Z,11.00
2022-10-06T03:23:50.949Z,11.10
2022-10-06T03:24:53.874Z,11.10
2022-10-06T03:25:56.709Z,11.10
2022-10-06T03:26:59.777Z,11.20
2022-10-06T03:28:01.720Z,11.20
2022-10-06T03:29:11.131Z,11.10
2022-10-06T03:30:14.985Z,11.10
2022-10-06T03:31:17.960Z,11.10
2022-10-06T03:32:23.687Z,11.00
2022-10-06T03:33:25.690Z,11.10
2022-10-06T03:34:28.602Z,11.00
2022-10-06T03:35:30.682Z,11.00
2022-10-06T03:36:34.982Z,11.00
2022-10-06T03:37:36.909Z,10.90
2022-10-06T03:38:40.296Z,10.90
2022-10-06T03:39:42.219Z,11.00
2022-10-06T03:40:45.274Z,11.00
2022-10-06T03:41:47.394Z,11.00
2022-10-06T03:42:50.338Z,11.00
2022-10-06T03:43:54.581Z,11.10
2022-10-06T03:44:58.837Z,11.10
2022-10-06T03:46:02.049Z,11.10
2022-10-06T03:47:05.150Z,11.10
2022-10-06T03:48:07.606Z,11.00
2022-10-06T03:49:10.489Z,11.00
2022-10-06T03:50:12.462Z,11.00
2022-10-06T03:51:17.278Z,11.10
2022-10-06T03:52:23.606Z,11.00
2022-10-06T03:53:30.100Z,11.10
2022-10-06T03:54:33.019Z,11.00
2022-10-06T03:55:34.919Z,11.00
2022-10-06T03:56:40.050Z,11.00
2022-10-06T03:57:41.971Z,10.90
2022-10-06T03:58:46.837Z,10.90
2022-10-06T03:59:48.756Z,11.00
2022-10-06T04:00:59.965Z,10.80
2022-10-06T04:02:04.521Z,10.90
2022-10-06T04:03:06.488Z,11.00
2022-10-06T04:04:10.798Z,10.90
2022-10-06T04:05:12.961Z,10.90
2022-10-06T04:06:18.432Z,10.90
2022-10-06T04:07:20.469Z,10.90
2022-10-06T04:08:23.727Z,11.00
2022-10-06T04:09:25.647Z,11.00
2022-10-06T04:10:28.710Z,11.00
2022-10-06T04:11:32.518Z,11.00
2022-10-06T04:12:35.833Z,11.00
2022-10-06T04:13:38.081Z,11.00
2022-10-06T04:14:41.029Z,11.00
2022-10-06T04:15:43.065Z,11.10
2022-10-06T04:16:49.039Z,11.00
2022-10-06T04:17:50.941Z,11.00
2022-10-06T04:18:55.474Z,11.00
2022-10-06T04:19:57.376Z,11.00
2022-10-06T04:21:01.206Z,11.10
2022-10-06T04:22:03.354Z,11.00
2022-10-06T04:23:06.694Z,11.00
2022-10-06T04:24:09.396Z,11.00
2022-10-06T04:25:12.333Z,11.00
2022-10-06T04:26:16.350Z,11.00
2022-10-06T04:27:30.970Z,11.00
2022-10-06T04:28:33.641Z,10.90
2022-10-06T04:29:36.982Z,10.90
2022-10-06T04:30:38.914Z,10.90
2022-10-06T04:31:42.940Z,10.80
2022-10-06T04:32:46.288Z,10.80
2022-10-06T04:33:52.980Z,10.80
2022-10-06T04:34:55.050Z,10.90
2022-10-06T04:35:59.581Z,10.90
2022-10-06T04:37:01.537Z,10.90
2022-10-06T04:38:04.488Z,10.90
2022-10-06T04:39:07.642Z,12.80
2022-10-06T04:40:11.284Z,10.90
2022-10-06T04:41:15.386Z,10.90
2022-10-06T04:42:18.321Z,10.90
2022-10-06T04:43:20.562Z,11.00
2022-10-06T04:44:23.476Z,10.90
2022-10-06T04:46:52.180Z,10.90
2022-10-06T04:47:55.537Z,11.00
2022-10-06T04:48:58.734Z,11.00
2022-10-06T04:50:00.734Z,11.00
2022-10-06T04:51:05.972Z,11.00
2022-10-06T04:52:08.890Z,11.00
2022-10-06T04:53:10.875Z,10.90
2022-10-06T04:54:14.276Z,10.80
2022-10-06T04:55:16.409Z,10.80
2022-10-06T04:56:21.257Z,10.90
2022-10-06T04:57:23.279Z,11.00
2022-10-06T04:58:26.518Z,10.90
2022-10-06T04:59:43.506Z,11.00
2022-10-06T05:00:49.372Z,10.90
2022-10-06T05:01:51.526Z,10.90
2022-10-06T05:02:56.814Z,10.90
2022-10-06T05:04:00.902Z,10.80
2022-10-06T05:05:03.867Z,10.90
2022-10-06T05:06:07.642Z,10.90
2022-10-06T05:07:11.033Z,10.90
2022-10-06T05:08:13.059Z,10.90
2022-10-06T05:09:16.932Z,10.90
2022-10-06T05:10:19.159Z,10.80
2022-10-06T05:11:25.862Z,10.80
2022-10-06T05:12:30.198Z,10.80
2022-10-06T05:13:33.428Z,10.90
2022-10-06T05:14:35.433Z,10.90
2022-10-06T05:15:39.533Z,10.80
2022-10-06T05:16:43.023Z,10.80
2022-10-06T05:17:46.020Z,10.80
2022-10-06T05:18:49.498Z,10.90
2022-10-06T05:19:52.442Z,10.90
2022-10-06T05:21:06.495Z,10.80
2022-10-06T05:22:09.750Z,10.90
2022-10-06T05:23:11.722Z,10.90
2022-10-06T05:24:14.769Z,10.90
2022-10-06T05:25:16.769Z,11.00
2022-10-06T05:26:21.858Z,11.00
2022-10-06T05:27:24.886Z,11.00
2022-10-06T05:28:29.580Z,11.00
2022-10-06T05:29:32.719Z,11.00
2022-10-06T05:30:34.747Z,11.10
2022-10-06T05:31:40.396Z,11.00
2022-10-06T05:32:46.226Z,11.00
2022-10-06T05:33:50.687Z,11.10
2022-10-06T05:34:52.625Z,11.10
2022-10-06T05:35:56.811Z,11.10
2022-10-06T05:36:58.811Z,11.00
2022-10-06T05:38:01.760Z,11.10
2022-10-06T05:39:04.119Z,11.10
2022-10-06T05:40:08.230Z,11.00
2022-10-06T05:41:12.524Z,11.00
2022-10-06T05:42:15.632Z,11.00
2022-10-06T05:43:18.330Z,11.00
2022-10-06T05:44:21.286Z,11.00
2022-10-06T05:45:23.261Z,11.00
2022-10-06T05:46:28.449Z,11.00
2022-10-06T05:47:30.615Z,11.00
2022-10-06T05:48:34.083Z,11.10
2022-10-06T05:49:37.376Z,11.10
2022-10-06T05:50:40.283Z,11.10
2022-10-06T05:51:42.371Z,11.10
2022-10-06T05:52:45.318Z,11.10
2022-10-06T05:53:48.704Z,11.00
2022-10-06T05:54:51.709Z,11.10
2022-10-06T05:56:01.810Z,11.10
2022-10-06T05:57:05.131Z,11.10
2022-10-06T05:58:07.142Z,11.10
2022-10-06T05:59:10.048Z,11.20
2022-10-06T06:00:12.760Z,11.20
2022-10-06T06:01:17.846Z,11.20
2022-10-06T06:02:20.985Z,11.20
2022-10-06T06:03:23.009Z,11.20
2022-10-06T06:04:26.011Z,11.30
2022-10-06T06:05:29.308Z,11.30
2022-10-06T06:06:34.539Z,11.30
2022-10-06T06:07:36.510Z,11.30
2022-10-06T06:08:39.493Z,11.30
2022-10-06T06:09:42.481Z,11.30
2022-10-06T06:10:44.454Z,11.30
2022-10-06T06:11:48.900Z,11.40
2022-10-06T06:12:50.825Z,11.40
2022-10-06T06:13:53.793Z,11.40
2022-10-06T06:15:14.193Z,11.40
2022-10-06T06:16:16.189Z,11.40
2022-10-06T06:17:18.183Z,11.40
2022-10-06T06:18:21.110Z,11.50
2022-10-06T06:19:28.358Z,11.50
2022-10-06T06:20:32.478Z,11.50
2022-10-06T06:21:35.503Z,11.50
2022-10-06T06:22:37.496Z,11.50
2022-10-06T06:23:42.602Z,11.50
2022-10-06T06:24:44.510Z,11.50
2022-10-06T06:26:02.068Z,11.50
2022-10-06T06:27:17.489Z,11.50
2022-10-06T06:28:20.092Z,11.50
2022-10-06T06:29:23.218Z,11.60
2022-10-06T06:30:25.401Z,11.60
2022-10-06T06:31:31.310Z,11.60
2022-10-06T06:32:33.504Z,11.60
2022-10-06T06:33:37.715Z,11.60
2022-10-06T06:34:40.942Z,11.60
2022-10-06T06:35:45.269Z,11.60
2022-10-06T06:36:53.709Z,11.60
2022-10-06T06:37:55.649Z,11.70
2022-10-06T06:38:59.375Z,11.60
2022-10-06T06:40:01.397Z,11.60
2022-10-06T06:41:04.297Z,11.60
2022-10-06T06:42:08.503Z,11.60
2022-10-06T06:43:12.297Z,11.70
2022-10-06T06:44:15.750Z,11.70
2022-10-06T06:45:17.741Z,11.70
2022-10-06T06:46:24.187Z,11.70
2022-10-06T06:47:26.811Z,11.70
2022-10-06T06:48:30.195Z,11.80
2022-10-06T06:49:32.685Z,11.80
2022-10-06T06:50:35.633Z,11.80
2022-10-06T06:51:41.094Z,11.90
2022-10-06T06:52:44.009Z,11.90
2022-10-06T06:53:46.034Z,11.90
2022-10-06T06:54:50.097Z,12.00
2022-10-06T06:55:52.198Z,12.00
2022-10-06T06:56:56.585Z,12.00
2022-10-06T06:57:58.478Z,12.00
2022-10-06T06:59:01.560Z,12.00
2022-10-06T07:00:06.046Z,12.10
2022-10-06T07:01:13.654Z,12.10
2022-10-06T07:02:15.692Z,12.10
2022-10-06T07:03:38.586Z,12.10
2022-10-06T07:04:43.845Z,12.10
2022-10-06T07:05:46.415Z,12.20
2022-10-06T07:06:57.964Z,12.20
2022-10-06T07:08:00.283Z,12.20
2022-10-06T07:09:03.696Z,12.20
2022-10-06T07:10:06.493Z,12.30
2022-10-06T07:11:18.097Z,12.30
2022-10-06T07:12:21.110Z,12.30
2022-10-06T07:13:25.612Z,12.30
2022-10-06T07:14:28.782Z,12.30
2022-10-06T07:15:49.134Z,12.30
2022-10-06T07:17:09.521Z,12.20
2022-10-06T07:18:30.205Z,12.30
2022-10-06T07:19:53.187Z,12.40
2022-10-06T07:21:13.492Z,12.40
2022-10-06T07:22:38.056Z,12.40
2022-10-06T07:23:58.652Z,12.50
2022-10-06T07:25:11.755Z,12.50
2022-10-06T07:26:13.830Z,12.50
2022-10-06T07:27:16.786Z,12.50
2022-10-06T07:28:18.724Z,12.60
2022-10-06T07:29:21.695Z,12.70
2022-10-06T07:30:26.566Z,12.70
2022-10-06T07:31:33.490Z,12.60
2022-10-06T07:32:36.324Z,12.70
2022-10-06T07:33:40.784Z,12.70
2022-10-06T07:35:50.610Z,12.80
2022-10-06T07:36:54.103Z,12.80
2022-10-06T07:38:07.770Z,12.80
2022-10-06T07:39:11.166Z,12.80
2022-10-06T07:40:13.280Z,12.80
2022-10-06T07:41:20.363Z,12.80
2022-10-06T07:42:22.687Z,12.80
2022-10-06T07:43:25.626Z,12.90
2022-10-06T07:44:27.589Z,13.00
2022-10-06T07:45:40.991Z,13.00
2022-10-06T07:46:45.285Z,12.90
2022-10-06T07:47:47.276Z,12.90
2022-10-06T07:48:50.507Z,12.90
2022-10-06T07:49:52.430Z,12.90
2022-10-06T07:50:55.345Z,12.90
2022-10-06T07:51:58.309Z,12.90
2022-10-06T07:53:04.865Z,12.90
2022-10-06T07:54:08.359Z,12.90
2022-10-06T07:55:18.163Z,13.00
2022-10-06T07:56:22.014Z,13.10
2022-10-06T07:57:26.381Z,13.10
2022-10-06T07:58:29.586Z,13.10
2022-10-06T07:59:32.605Z,13.10
2022-10-06T08:00:35.774Z,13.10
2022-10-06T08:01:40.469Z,13.10
2022-10-06T08:02:42.530Z,13.20
2022-10-06T08:03:48.425Z,13.20
2022-10-06T08:04:50.437Z,13.20
2022-10-06T08:05:59.742Z,13.20
2022-10-06T08:07:01.832Z,13.20
2022-10-06T08:08:06.412Z,13.20
2022-10-06T08:09:08.683Z,13.20
2022-10-06T08:10:11.766Z,13.30
2022-10-06T08:11:16.397Z,13.30
2022-10-06T08:12:33.577Z,13.30
2022-10-06T08:13:37.695Z,13.30
2022-10-06T08:14:39.632Z,13.20
2022-10-06T08:15:42.645Z,13.20
2022-10-06T08:16:45.937Z,13.20
2022-10-06T08:17:47.998Z,13.20
2022-10-06T08:18:53.152Z,13.10
2022-10-06T08:19:55.127Z,13.20
2022-10-06T08:20:58.157Z,13.20
2022-10-06T08:22:04.682Z,13.20
2022-10-06T08:23:12.019Z,13.20
2022-10-06T08:24:15.094Z,13.40
2022-10-06T08:25:18.191Z,13.30
2022-10-06T08:26:21.778Z,13.30
2022-10-06T08:27:25.267Z,13.30
2022-10-06T08:28:30.332Z,13.30
2022-10-06T08:29:34.082Z,13.40
2022-10-06T08:30:36.089Z,13.40
2022-10-06T08:31:39.143Z,13.40
2022-10-06T08:32:43.291Z,13.40
2022-10-06T08:33:46.116Z,13.50
2022-10-06T08:34:49.222Z,13.50
2022-10-06T08:35:51.605Z,13.50
2022-10-06T08:37:18.666Z,13.50
2022-10-06T08:38:19.901Z,13.50
2022-10-06T08:39:22.842Z,13.60
2022-10-06T08:40:26.165Z,13.60
2022-10-06T08:41:36.338Z,13.70
2022-10-06T08:42:42.522Z,13.70
2022-10-06T08:43:48.383Z,13.70
2022-10-06T08:44:56.880Z,13.70
2022-10-06T08:46:02.801Z,13.70
2022-10-06T08:47:11.694Z,13.80
2022-10-06T08:48:18.561Z,13.80
2022-10-06T08:49:23.561Z,13.80
2022-10-06T08:50:28.052Z,13.90
2022-10-06T08:51:49.925Z,13.90
2022-10-06T08:53:02.435Z,14.00
2022-10-06T08:54:11.758Z,14.00
2022-10-06T08:55:29.029Z,14.00
2022-10-06T08:56:51.950Z,14.00
2022-10-06T08:58:05.775Z,14.00
2022-10-06T08:59:10.260Z,14.10
2022-10-06T09:00:18.012Z,14.10
2022-10-06T09:01:27.371Z,14.20
2022-10-06T09:02:32.432Z,14.20
2022-10-06T09:03:37.844Z,14.20
2022-10-06T09:04:40.794Z,14.20
2022-10-06T09:05:42.848Z,14.30
2022-10-06T09:06:51.217Z,14.30
2022-10-06T09:08:05.951Z,14.30
2022-10-06T09:09:22.864Z,14.40
2022-10-06T09:10:41.333Z,14.40
2022-10-06T09:11:51.081Z,14.50
2022-10-06T09:12:58.773Z,14.50
2022-10-06T09:14:04.349Z,14.50
2022-10-06T09:15:21.124Z,14.60
2022-10-06T09:16:30.037Z,14.60
2022-10-06T09:17:37.469Z,14.70
2022-10-06T09:19:06.807Z,14.70
2022-10-06T09:20:20.471Z,14.70
2022-10-06T09:21:31.266Z,14.70
2022-10-06T09:22:34.299Z,14.80
2022-10-06T09:23:49.582Z,14.90
2022-10-06T09:24:59.818Z,14.90
2022-10-06T09:26:02.673Z,14.90
2022-10-06T09:27:18.649Z,14.90
2022-10-06T09:28:21.799Z,14.90
2022-10-06T09:29:23.998Z,15.00
2022-10-06T09:30:28.006Z,15.00
2022-10-06T09:31:31.913Z,15.00
2022-10-06T09:32:35.464Z,15.00
2022-10-06T09:33:39.725Z,15.00
2022-10-06T09:34:47.589Z,15.00
2022-10-06T09:36:08.842Z,15.10
2022-10-06T09:37:13.500Z,15.10
2022-10-06T09:38:16.454Z,15.10
2022-10-06T09:39:26.258Z,15.10
2022-10-06T09:40:38.887Z,15.20
2022-10-06T09:41:45.926Z,15.30
2022-10-06T09:42:49.233Z,15.40
2022-10-06T09:43:55.394Z,15.40
2022-10-06T09:45:01.870Z,15.50
2022-10-06T09:46:20.622Z,15.50
2022-10-06T09:47:40.070Z,15.50
2022-10-06T09:48:42.031Z,15.50
2022-10-06T09:49:45.803Z,15.50
2022-10-06T09:51:08.952Z,15.50
2022-10-06T09:52:14.960Z,15.60
2022-10-06T09:53:18.413Z,15.50
2022-10-06T09:54:20.687Z,15.50
2022-10-06T09:55:28.584Z,15.50
2022-10-06T09:56:36.211Z,15.60
2022-10-06T09:57:40.937Z,15.60
2022-10-06T09:58:56.681Z,15.60
2022-10-06T09:59:59.736Z,15.70
2022-10-06T10:01:04.749Z,15.70
2022-10-06T10:02:27.146Z,15.80
2022-10-06T10:04:02.056Z,15.80
2022-10-06T10:05:20.915Z,15.80
2022-10-06T10:06:25.150Z,16.00
2022-10-06T10:07:29.939Z,16.00
2022-10-06T10:08:31.960Z,15.90
2022-10-06T10:09:34.927Z,15.90
2022-10-06T10:10:37.404Z,15.90
2022-10-06T10:11:59.252Z,15.90
2022-10-06T10:13:02.405Z,16.00
2022-10-06T10:14:04.624Z,16.10
2022-10-06T10:15:27.669Z,16.30
2022-10-06T10:16:34.431Z,16.40
2022-10-06T10:17:46.967Z,16.50
2022-10-06T10:18:50.939Z,16.50
2022-10-06T10:19:54.570Z,16.40
2022-10-06T10:20:59.920Z,16.30
2022-10-06T10:22:03.746Z,16.20
2022-10-06T10:23:27.231Z,16.20
2022-10-06T10:24:49.340Z,16.10
2022-10-06T10:26:27.083Z,16.00
2022-10-06T10:27:40.798Z,16.10
2022-10-06T10:28:58.958Z,16.20
2022-10-06T10:30:09.283Z,16.30
2022-10-06T10:31:18.431Z,16.40
2022-10-06T10:32:27.850Z,16.40
2022-10-06T10:33:43.192Z,16.30
2022-10-06T10:35:04.309Z,16.40
2022-10-06T10:36:09.022Z,16.40
2022-10-06T10:37:15.012Z,16.50
2022-10-06T10:38:21.516Z,16.50
2022-10-06T10:39:33.600Z,16.50
2022-10-06T10:40:43.720Z,16.50
2022-10-06T10:41:49.245Z,16.40
2022-10-06T10:43:04.749Z,16.40
2022-10-06T10:44:11.058Z,16.40
2022-10-06T10:45:18.332Z,16.30
2022-10-06T10:47:14.310Z,16.20
2022-10-06T10:48:23.850Z,16.20
2022-10-06T10:49:29.915Z,16.20
2022-10-06T10:50:38.894Z,16.10
2022-10-06T10:51:47.671Z,16.10
2022-10-06T10:52:52.429Z,16.10
2022-10-06T10:54:15.303Z,16.10
2022-10-06T10:55:28.051Z,16.20
2022-10-06T10:56:33.937Z,16.20
2022-10-06T10:57:40.340Z,16.10
2022-10-06T10:58:47.021Z,16.10
2022-10-06T10:59:57.870Z,16.20
2022-10-06T11:01:06.311Z,16.20
2022-10-06T11:02:13.274Z,16.20
2022-10-06T11:03:16.240Z,16.20
2022-10-06T11:04:18.189Z,16.20
2022-10-06T11:05:36.855Z,16.20
2022-10-06T11:07:00.275Z,16.20
2022-10-06T11:08:07.622Z,16.20
2022-10-06T11:09:15.516Z,16.20
2022-10-06T11:10:20.733Z,16.20
2022-10-06T11:11:39.594Z,16.10
2022-10-06T11:13:12.598Z,16.20
2022-10-06T11:14:30.361Z,16.20
2022-10-06T11:15:48.497Z,16.20
2022-10-06T11:16:56.670Z,16.20
2022-10-06T11:18:07.926Z,16.30
2022-10-06T11:19:16.700Z,16.30
2022-10-06T11:20:37.721Z,16.30
2022-10-06T11:21:45.266Z,16.30
2022-10-06T11:22:53.593Z,16.20
2022-10-06T11:24:01.707Z,16.20
2022-10-06T11:25:19.323Z,16.30
2022-10-06T11:26:41.753Z,16.30
2022-10-06T11:27:52.194Z,16.30
2022-10-06T11:29:02.033Z,16.20
2022-10-06T11:30:12.684Z,16.20
2022-10-06T11:31:28.274Z,16.30
2022-10-06T11:32:43.215Z,16.30
2022-10-06T11:33:49.725Z,16.20
2022-10-06T11:34:53.326Z,16.10
2022-10-06T11:35:56.636Z,16.10
2022-10-06T11:37:05.950Z,16.10
2022-10-06T11:38:16.887Z,16.10
2022-10-06T11:39:24.826Z,16.00
2022-10-06T11:40:57.827Z,16.00
2022-10-06T11:42:06.709Z,16.00
2022-10-06T11:43:18.078Z,16.00
2022-10-06T11:44:32.538Z,16.00
2022-10-06T11:45:47.834Z,16.00
2022-10-06T11:46:54.113Z,16.10
2022-10-06T11:48:15.431Z,16.10
2022-10-06T11:49:52.593Z,16.10
2022-10-06T11:50:55.628Z,16.10
2022-10-06T11:52:18.897Z,16.00
2022-10-06T11:53:39.395Z,16.10
2022-10-06T11:54:48.069Z,16.10
2022-10-06T11:56:39.913Z,16.00
2022-10-06T11:58:17.872Z,16.00
2022-10-06T11:59:31.304Z,16.10
2022-10-06T12:00:50.713Z,16.10
2022-10-06T12:01:57.082Z,16.10
2022-10-06T12:03:55.685Z,16.20
2022-10-06T12:05:59.807Z,16.40
2022-10-06T12:06:59.575Z,16.60
2022-10-06T12:08:16.729Z,16.90
2022-10-06T12:09:46.267Z,16.70
2022-10-06T12:10:50.871Z,16.70
2022-10-06T12:11:53.886Z,16.70
2022-10-06T12:13:07.092Z,16.70
2022-10-06T12:17:44.128Z,16.80
2022-10-06T12:18:54.870Z,16.90
2022-10-06T12:20:10.011Z,16.90
2022-10-06T12:21:46.755Z,16.80
2022-10-06T12:22:52.464Z,16.70
2022-10-06T12:24:05.406Z,16.70
2022-10-06T12:25:16.774Z,16.60
2022-10-06T12:26:34.443Z,16.50
2022-10-06T12:27:50.180Z,16.50
2022-10-06T12:28:57.413Z,16.40
2022-10-06T12:30:07.349Z,16.40
2022-10-06T12:31:42.496Z,16.40
2022-10-06T12:32:50.905Z,16.30
2022-10-06T12:33:52.824Z,16.30
2022-10-06T12:35:04.214Z,16.30
2022-10-06T12:36:19.046Z,16.40
2022-10-06T12:37:46.398Z,16.50
2022-10-06T12:39:06.843Z,16.50
2022-10-06T12:40:48.129Z,16.40
2022-10-06T12:42:01.996Z,16.40
2022-10-06T12:43:17.492Z,16.50
2022-10-06T12:44:25.527Z,16.50
2022-10-06T12:45:27.450Z,16.40
2022-10-06T12:46:43.605Z,16.40
2022-10-06T12:47:46.630Z,16.30
2022-10-06T12:49:01.234Z,16.40
2022-10-06T12:50:13.225Z,16.30
2022-10-06T12:51:27.907Z,16.40
2022-10-06T12:52:44.883Z,16.50
2022-10-06T12:53:55.505Z,16.40
2022-10-06T12:55:12.550Z,16.40
2022-10-06T12:56:28.470Z,16.40
2022-10-06T12:57:33.444Z,16.30
2022-10-06T12:58:35.390Z,16.30
2022-10-06T12:59:40.735Z,16.20
2022-10-06T13:00:44.858Z,16.20
2022-10-06T13:01:50.376Z,16.20
2022-10-06T13:02:58.429Z,16.20
2022-10-06T13:04:01.445Z,16.20
2022-10-06T13:05:13.279Z,16.20
2022-10-06T13:06:22.796Z,16.20
2022-10-06T13:07:28.779Z,16.20
2022-10-06T13:08:33.793Z,16.20
2022-10-06T13:09:36.218Z,16.20
2022-10-06T13:10:39.260Z,16.10
2022-10-06T13:11:41.468Z,16.20
2022-10-06T13:12:47.282Z,16.20
2022-10-06T13:13:51.660Z,16.20
2022-10-06T13:15:17.379Z,16.20
2022-10-06T13:16:24.055Z,16.30
2022-10-06T13:17:27.389Z,16.30
2022-10-06T13:18:32.565Z,16.30
2022-10-06T13:19:37.063Z,16.30
2022-10-06T13:20:42.335Z,16.30
2022-10-06T13:21:45.298Z,16.40
2022-10-06T13:22:56.621Z,16.30
2022-10-06T13:23:59.820Z,16.30
2022-10-06T13:25:02.121Z,16.30
2022-10-06T13:26:07.483Z,16.30
2022-10-06T13:27:18.737Z,16.30
2022-10-06T13:28:46.427Z,16.30
2022-10-06T13:29:49.651Z,16.30
2022-10-06T13:30:54.737Z,16.20
2022-10-06T13:31:58.202Z,16.30
2022-10-06T13:33:01.762Z,16.30
2022-10-06T13:34:07.374Z,16.40
2022-10-06T13:35:12.202Z,16.40
2022-10-06T13:36:16.525Z,16.40
2022-10-06T13:37:19.699Z,16.40
2022-10-06T13:38:23.185Z,16.40
2022-10-06T13:39:27.143Z,16.40
2022-10-06T13:40:44.094Z,16.40
2022-10-06T13:41:50.882Z,16.40
2022-10-06T13:42:52.857Z,16.40
2022-10-06T13:43:59.294Z,16.40
2022-10-06T13:45:02.886Z,16.30
2022-10-06T13:46:09.385Z,16.30
2022-10-06T13:47:17.223Z,16.30
2022-10-06T13:48:21.774Z,16.30
2022-10-06T13:49:30.594Z,16.30
2022-10-06T13:50:32.707Z,16.30
2022-10-06T13:51:35.900Z,16.40
2022-10-06T13:52:41.504Z,16.30
2022-10-06T13:53:46.620Z,16.30
2022-10-06T13:54:52.965Z,16.40
2022-10-06T13:55:56.532Z,16.30
2022-10-06T13:56:59.008Z,16.30
2022-10-06T13:58:10.685Z,16.30
2022-10-06T13:59:35.797Z,16.30
2022-10-06T14:00:50.270Z,16.30
2022-10-06T14:01:53.273Z,16.30
2022-10-06T14:02:58.845Z,16.30
2022-10-06T14:04:18.137Z,16.30
2022-10-06T14:05:27.025Z,16.30
2022-10-06T14:06:30.243Z,16.40
2022-10-06T14:07:32.323Z,16.40
2022-10-06T14:08:35.554Z,16.50
2022-10-06T14:09:37.569Z,16.50
2022-10-06T14:10:48.190Z,16.40
2022-10-06T14:11:51.920Z,16.40
2022-10-06T14:12:54.868Z,16.40
2022-10-06T14:14:00.965Z,16.40
2022-10-06T14:15:03.183Z,16.40
2022-10-06T14:16:08.124Z,16.40
2022-10-06T14:17:23.036Z,16.30
2022-10-06T14:18:29.246Z,16.50
2022-10-06T14:19:38.799Z,16.50
2022-10-06T14:20:46.929Z,16.60
2022-10-06T14:21:51.296Z,16.60
2022-10-06T14:22:53.189Z,16.70
2022-10-06T14:23:57.618Z,16.70